Main page
METAR-TAF:

METAR-TAF

Airports :

Copenhagen Airport

Copenhagen, Denmark

latitude: 55-37N, longitude: 012-39E, elevation: 5 m

Current weather observation

The report was made 15 minutes ago, at 21:50 UTC
Wind 5 kt from the North
Temperature 17°C
Humidity 77%
Pressure 1029 hPa
Visibility 10 km or more

METAR: EKCH 092150Z AUTO 35005KT 9999 NCD 17/13 Q1029 NOSIG

Time: 00:05 (22:05 UTC)

Forecast

The report was made 4 hours and 55 minutes ago, at 17:10 UTC
Forecast valid from 09 at 18 UTC to 10 at 18 UTC
Wind 2 kt from variable directions
Visibility 10 km or more
Scattered clouds at a height of 4000 ft

TAF: EKCH 091710Z 0918/1018 VRB02KT 9999 SCT040

Weather observations and forecasts of more than 4000 airports (METAR and TAF reports).

The available stations are represented by yellow and red dots on the map.

Hover mouse over dot to see the name of the station.

Then click to see weather observations and forecasts.

To change the map : click on the green buttons with a black cross to zoom in, on the green button with a dash to zoom out, or on the green arrows for adjacent maps.


METAR-TAF: